Terminal Aerodrome Forecast
Issued by NWS Chicago, IL

Home | Current Version | Previous Version | Text Only | Print | Product List | Glossary On
Versions: 1 2 3 4 5 6 7 8 9 10 11 12 13 14 15 16 17 18 19 20 21 22 23 24 25 26 27 28 29 30
000
FTUS43 KLOT 031136
TAFRFD
TAF
KRFD 031136Z 0312/0412 18010KT P6SM VCSH BKN070
     FM031600 19014G21KT P6SM VCSH BKN070
      TEMPO 0316/0319 6SM -SHRA OVC045
     FM031900 21016G24KT P6SM SCT050 BKN100
     FM040000 19012KT P6SM BKN080 PROB30 0406/0409 -SHRA OVC045
     FM040900 20010KT 5SM -SHRA VCTS OVC040CB=

USA.gov is the U.S. government's official web portal to all federal, state and local government web resources and services.